Time,TemperatureF,DewpointF,PressureIn,WindDirection,WindDirectionDegrees,WindSpeedMPH,WindSpeedGustMPH,Humidity,HourlyPrecipIn,Conditions,Clouds,dailyrainin,SoftwareType,DateUTC
2013-01-30 00:05:00,52.7,50.1,29.52,SSW,198,3.0,4.0,91,0.00,,,0.00,Wunderground v.1.15,2013-01-30 05:05:00,
2013-01-30 00:10:00,52.7,50.4,29.52,SE,134,3.0,5.0,92,0.00,,,0.00,Wunderground v.1.15,2013-01-30 05:10:00,
2013-01-30 00:15:00,52.7,50.1,29.51,SE,145,3.0,5.0,91,0.00,,,0.00,Wunderground v.1.15,2013-01-30 05:15:00,
2013-01-30 00:20:00,52.8,50.5,29.51,South,189,3.0,6.0,92,0.00,,,0.00,Wunderground v.1.15,2013-01-30 05:20:00,
2013-01-30 00:30:00,53.6,51.3,29.50,SSE,152,3.0,3.0,92,0.00,,,0.00,Wunderground v.1.15,2013-01-30 05:30:00,
2013-01-30 00:35:00,54.2,52.2,29.50,SE,143,3.0,3.0,93,0.00,,,0.00,Wunderground v.1.15,2013-01-30 05:35:00,
2013-01-30 00:45:00,55.3,52.7,29.48,SSW,211,5.0,8.0,91,0.00,,,0.00,Wunderground v.1.15,2013-01-30 05:45:00,
2013-01-30 00:50:00,55.7,53.1,29.47,SW,226,5.0,5.0,91,0.00,,,0.00,Wunderground v.1.15,2013-01-30 05:50:00,
2013-01-30 01:00:00,55.8,52.9,29.47,SSW,193,5.0,5.0,90,0.00,,,0.00,Wunderground v.1.15,2013-01-30 06:00:00,
2013-01-30 01:10:00,55.9,53.3,29.45,WSW,247,5.0,5.0,91,0.00,,,0.01,Wunderground v.1.15,2013-01-30 06:10:00,
2013-01-30 01:20:00,56.2,53.6,29.45,WSW,238,5.0,5.0,91,0.00,,,0.01,Wunderground v.1.15,2013-01-30 06:20:00,
2013-01-30 01:25:00,56.3,53.7,29.44,SW,218,6.0,6.0,91,0.00,,,0.02,Wunderground v.1.15,2013-01-30 06:25:00,
2013-01-30 01:35:00,56.5,53.9,29.43,SW,222,5.0,7.0,91,0.00,,,0.02,Wunderground v.1.15,2013-01-30 06:35:00,
2013-01-30 01:40:00,56.7,54.1,29.42,SW,214,5.0,11.0,91,0.00,,,0.02,Wunderground v.1.15,2013-01-30 06:40:00,
2013-01-30 01:50:00,57.3,54.4,29.41,SW,232,7.0,7.0,90,0.00,,,0.02,Wunderground v.1.15,2013-01-30 06:50:00,
2013-01-30 01:55:00,57.4,54.2,29.40,South,170,7.0,7.0,89,0.00,,,0.02,Wunderground v.1.15,2013-01-30 06:55:00,
2013-01-30 02:00:00,57.6,54.4,29.41,SW,223,7.0,11.0,89,0.00,,,0.02,Wunderground v.1.15,2013-01-30 07:00:00,
2013-01-30 02:10:00,58.2,55.0,29.40,South,191,7.0,7.0,89,0.00,,,0.02,Wunderground v.1.15,2013-01-30 07:10:00,
2013-01-30 02:20:00,59.0,55.4,29.39,SW,231,8.0,8.0,88,0.00,,,0.02,Wunderground v.1.15,2013-01-30 07:20:00,
2013-01-30 02:30:00,59.3,55.7,29.38,SW,227,8.0,10.0,88,0.00,,,0.02,Wunderground v.1.15,2013-01-30 07:30:00,
2013-01-30 02:35:00,59.6,55.7,29.38,SSW,193,8.0,10.0,87,0.00,,,0.02,Wunderground v.1.15,2013-01-30 07:35:00,
2013-01-30 02:45:00,59.8,55.9,29.38,SW,227,9.0,9.0,87,0.00,,,0.02,Wunderground v.1.15,2013-01-30 07:45:00,
2013-01-30 02:50:00,59.8,55.9,29.39,SSE,158,8.0,9.0,87,0.00,,,0.02,Wunderground v.1.15,2013-01-30 07:50:00,
2013-01-30 03:00:00,59.9,56.0,29.36,WSW,245,7.0,7.0,87,0.00,,,0.02,Wunderground v.1.15,2013-01-30 08:00:00,
2013-01-30 03:10:00,59.9,56.0,29.35,SW,233,7.0,7.0,87,0.00,,,0.02,Wunderground v.1.15,2013-01-30 08:10:00,
2013-01-30 03:15:00,59.5,55.3,29.35,SW,223,7.0,16.0,86,0.00,,,0.02,Wunderground v.1.15,2013-01-30 08:15:00,
2013-01-30 03:25:00,58.8,54.9,29.35,South,176,7.0,13.0,87,0.00,,,0.03,Wunderground v.1.15,2013-01-30 08:25:00,
2013-01-30 03:30:00,58.8,55.3,29.34,SW,230,7.0,10.0,88,0.00,,,0.03,Wunderground v.1.15,2013-01-30 08:30:00,
2013-01-30 03:40:00,59.3,55.4,29.34,SSW,205,9.0,9.0,87,0.00,,,0.03,Wunderground v.1.15,2013-01-30 08:40:00,
2013-01-30 03:50:00,59.9,55.7,29.33,South,183,9.0,9.0,86,0.00,,,0.03,Wunderground v.1.15,2013-01-30 08:50:00,
2013-01-30 04:00:00,60.2,56.0,29.34,SW,227,9.0,10.0,86,0.00,,,0.03,Wunderground v.1.15,2013-01-30 09:00:00,
2013-01-30 04:10:00,60.3,55.8,29.33,SE,133,8.0,12.0,85,0.00,,,0.03,Wunderground v.1.15,2013-01-30 09:10:00,
2013-01-30 04:20:00,60.3,55.8,29.32,WSW,245,7.0,7.0,85,0.00,,,0.03,Wunderground v.1.15,2013-01-30 09:20:00,
2013-01-30 04:30:00,60.5,56.0,29.32,SW,224,8.0,10.0,85,0.00,,,0.03,Wunderground v.1.15,2013-01-30 09:30:00,
2013-01-30 04:35:00,60.4,55.9,29.32,SW,232,7.0,10.0,85,0.00,,,0.03,Wunderground v.1.15,2013-01-30 09:35:00,
2013-01-30 04:45:00,60.1,55.9,29.32,South,179,7.0,9.0,86,0.00,,,0.03,Wunderground v.1.15,2013-01-30 09:45:00,
2013-01-30 04:55:00,60.1,56.8,29.35,SW,223,7.0,10.0,89,0.44,,,0.05,Wunderground v.1.15,2013-01-30 09:55:00,
2013-01-30 05:00:00,58.7,55.5,29.35,WSW,252,5.0,5.0,89,0.28,,,0.09,Wunderground v.1.15,2013-01-30 10:00:00,
2013-01-30 05:10:00,56.5,53.9,29.35,WNW,290,3.0,5.0,91,0.15,,,0.11,Wunderground v.1.15,2013-01-30 10:10:00,
2013-01-30 05:20:00,55.2,53.2,29.35,WSW,249,4.0,4.0,93,0.17,,,0.13,Wunderground v.1.15,2013-01-30 10:20:00,
2013-01-30 05:30:00,54.6,52.9,29.35,WNW,301,3.0,4.0,94,0.08,,,0.14,Wunderground v.1.15,2013-01-30 10:30:00,
2013-01-30 05:35:00,54.3,52.6,29.35,WNW,282,3.0,4.0,94,0.12,,,0.15,Wunderground v.1.15,2013-01-30 10:35:00,
2013-01-30 05:45:00,53.9,52.5,29.36,West,278,2.0,3.0,95,0.12,,,0.17,Wunderground v.1.15,2013-01-30 10:45:00,
2013-01-30 05:55:00,53.6,52.2,29.37,WSW,251,3.0,3.0,95,0.20,,,0.20,Wunderground v.1.15,2013-01-30 10:55:00,
2013-01-30 06:00:00,53.4,52.0,29.36,West,277,2.0,2.0,95,0.12,,,0.21,Wunderground v.1.15,2013-01-30 11:00:00,
2013-01-30 06:10:00,53.0,51.6,29.38,West,266,3.0,4.0,95,0.07,,,0.23,Wunderground v.1.15,2013-01-30 11:10:00,
2013-01-30 06:20:00,52.8,51.4,29.38,WNW,290,3.0,4.0,95,0.10,,,0.25,Wunderground v.1.15,2013-01-30 11:20:00,
2013-01-30 06:30:00,52.5,51.1,29.38,NW,307,4.0,4.0,95,0.06,,,0.27,Wunderground v.1.15,2013-01-30 11:30:00,
2013-01-30 06:40:00,52.2,50.8,29.38,West,261,2.0,3.0,95,0.06,,,0.27,Wunderground v.1.15,2013-01-30 11:40:00,
2013-01-30 06:50:00,52.2,50.8,29.37,WNW,295,2.0,2.0,95,0.00,,,0.27,Wunderground v.1.15,2013-01-30 11:50:00,
2013-01-30 07:00:00,52.0,50.6,29.38,SW,234,1.0,1.0,95,0.00,,,0.27,Wunderground v.1.15,2013-01-30 12:00:00,
2013-01-30 07:10:00,51.7,50.3,29.38,SW,235,0.0,0.0,95,0.11,,,0.29,Wunderground v.1.15,2013-01-30 12:10:00,
2013-01-30 07:20:00,51.3,50.2,29.36,SW,218,1.0,1.0,96,0.14,,,0.31,Wunderground v.1.15,2013-01-30 12:20:00,
2013-01-30 07:30:00,51.2,50.1,29.36,SW,219,0.0,0.0,96,0.12,,,0.33,Wunderground v.1.15,2013-01-30 12:30:00,
2013-01-30 07:40:00,51.1,50.0,29.37,SSW,209,0.0,0.0,96,0.06,,,0.34,Wunderground v.1.15,2013-01-30 12:40:00,
2013-01-30 07:50:00,51.0,49.9,29.37,SSW,209,0.0,0.0,96,0.05,,,0.34,Wunderground v.1.15,2013-01-30 12:50:00,
2013-01-30 07:55:00,50.9,49.8,29.36,SSW,209,0.0,0.0,96,0.04,,,0.35,Wunderground v.1.15,2013-01-30 12:55:00,
2013-01-30 08:00:00,50.8,49.7,29.35,ESE,120,0.0,1.0,96,0.04,,,0.35,Wunderground v.1.15,2013-01-30 13:00:00,
2013-01-30 08:10:00,50.6,49.5,29.34,ESE,117,0.0,1.0,96,0.00,,,0.35,Wunderground v.1.15,2013-01-30 13:10:00,
2013-01-30 08:20:00,50.6,49.8,29.34,SSW,210,1.0,2.0,97,0.00,,,0.35,Wunderground v.1.15,2013-01-30 13:20:00,
2013-01-30 08:30:00,50.4,49.6,29.33,SW,214,1.0,2.0,97,0.00,,,0.35,Wunderground v.1.15,2013-01-30 13:30:00,
2013-01-30 08:40:00,50.3,49.5,29.33,ESE,107,1.0,1.0,97,0.00,,,0.35,Wunderground v.1.15,2013-01-30 13:40:00,
2013-01-30 08:50:00,49.9,49.1,29.30,SE,143,1.0,1.0,97,0.00,,,0.35,Wunderground v.1.15,2013-01-30 13:50:00,
2013-01-30 08:55:00,50.0,49.2,29.30,SE,140,1.0,1.0,97,0.00,,,0.35,Wunderground v.1.15,2013-01-30 13:55:00,
2013-01-30 09:00:00,50.1,49.3,29.31,SE,124,1.0,1.0,97,0.00,,,0.35,Wunderground v.1.15,2013-01-30 14:00:00,
2013-01-30 09:10:00,50.0,49.2,29.31,SSW,205,1.0,1.0,97,0.00,,,0.35,Wunderground v.1.15,2013-01-30 14:10:00,
2013-01-30 09:20:00,49.8,49.0,29.30,WSW,237,1.0,2.0,97,0.00,,,0.35,Wunderground v.1.15,2013-01-30 14:20:00,
2013-01-30 09:25:00,49.7,48.9,29.32,SW,224,2.0,6.0,97,0.00,,,0.35,Wunderground v.1.15,2013-01-30 14:25:00,
2013-01-30 09:35:00,49.6,48.8,29.33,SSE,160,5.0,5.0,97,0.00,,,0.35,Wunderground v.1.15,2013-01-30 14:35:00,
2013-01-30 09:45:00,49.3,48.2,29.32,South,182,3.0,4.0,96,0.00,,,0.35,Wunderground v.1.15,2013-01-30 14:45:00,
2013-01-30 09:55:00,49.4,48.3,29.30,SSE,151,3.0,6.0,96,0.00,,,0.35,Wunderground v.1.15,2013-01-30 14:55:00,
2013-01-30 10:00:00,49.5,48.4,29.31,SE,146,2.0,4.0,96,0.00,,,0.35,Wunderground v.1.15,2013-01-30 15:00:00,
2013-01-30 10:10:00,49.5,48.4,29.34,SW,217,3.0,5.0,96,0.00,,,0.35,Wunderground v.1.15,2013-01-30 15:10:00,
2013-01-30 10:20:00,49.7,48.6,29.33,SW,230,2.0,4.0,96,0.00,,,0.35,Wunderground v.1.15,2013-01-30 15:20:00,
2013-01-30 10:30:00,50.0,48.9,29.35,SW,221,2.0,2.0,96,0.00,,,0.35,Wunderground v.1.15,2013-01-30 15:30:00,
2013-01-30 10:35:00,50.2,49.1,29.37,SW,234,1.0,2.0,96,0.00,,,0.35,Wunderground v.1.15,2013-01-30 15:35:00,
2013-01-30 10:45:00,50.6,49.5,29.33,SSE,166,1.0,1.0,96,0.00,,,0.35,Wunderground v.1.15,2013-01-30 15:45:00,
2013-01-30 10:50:00,50.8,49.7,29.35,SW,224,1.0,3.0,96,0.00,,,0.35,Wunderground v.1.15,2013-01-30 15:50:00,
2013-01-30 11:00:00,51.5,50.1,29.35,SW,226,2.0,2.0,95,0.00,,,0.35,Wunderground v.1.15,2013-01-30 16:00:00,
2013-01-30 11:10:00,52.3,50.6,29.33,SW,228,3.0,3.0,94,0.00,,,0.35,Wunderground v.1.15,2013-01-30 16:10:00,
2013-01-30 11:20:00,52.6,50.6,29.34,SW,218,3.0,3.0,93,0.00,,,0.35,Wunderground v.1.15,2013-01-30 16:20:00,
2013-01-30 11:25:00,52.8,50.8,29.33,SW,221,3.0,3.0,93,0.00,,,0.35,Wunderground v.1.15,2013-01-30 16:25:00,
2013-01-30 11:35:00,53.1,50.8,29.31,SW,224,2.0,3.0,92,0.00,,,0.35,Wunderground v.1.15,2013-01-30 16:35:00,
2013-01-30 11:45:00,53.3,51.0,29.30,SW,221,2.0,3.0,92,0.00,,,0.35,Wunderground v.1.15,2013-01-30 16:45:00,
2013-01-30 11:55:00,53.5,50.9,29.31,SW,222,3.0,4.0,91,0.00,,,0.35,Wunderground v.1.15,2013-01-30 16:55:00,
2013-01-30 12:00:00,53.7,51.1,29.31,SSW,198,3.0,3.0,91,0.00,,,0.35,Wunderground v.1.15,2013-01-30 17:00:00,
2013-01-30 12:10:00,54.1,51.2,29.31,SW,214,4.0,4.0,90,0.00,,,0.35,Wunderground v.1.15,2013-01-30 17:10:00,
2013-01-30 12:20:00,54.5,51.3,29.30,SW,233,4.0,5.0,89,0.00,,,0.35,Wunderground v.1.15,2013-01-30 17:20:00,
2013-01-30 12:30:00,54.9,51.7,29.30,WSW,237,3.0,3.0,89,0.00,,,0.35,Wunderground v.1.15,2013-01-30 17:30:00,
2013-01-30 12:40:00,55.1,51.6,29.29,SW,231,3.0,4.0,88,0.00,,,0.35,Wunderground v.1.15,2013-01-30 17:40:00,
2013-01-30 12:50:00,55.3,51.5,29.28,SSW,201,4.0,4.0,87,0.00,,,0.35,Wunderground v.1.15,2013-01-30 17:50:00,
2013-01-30 12:55:00,55.4,51.6,29.28,SW,217,4.0,6.0,87,0.00,,,0.35,Wunderground v.1.15,2013-01-30 17:55:00,
2013-01-30 13:00:00,55.4,51.6,29.27,SSW,208,4.0,4.0,87,0.00,,,0.35,Wunderground v.1.15,2013-01-30 18:00:00,
2013-01-30 13:10:00,55.4,51.3,29.29,SW,226,5.0,8.0,86,0.00,,,0.35,Wunderground v.1.15,2013-01-30 18:10:00,
2013-01-30 13:15:00,55.4,51.3,29.28,West,278,5.0,8.0,86,0.00,,,0.35,Wunderground v.1.15,2013-01-30 18:15:00,
2013-01-30 13:25:00,55.3,51.5,29.26,SW,230,4.0,5.0,87,0.00,,,0.35,Wunderground v.1.15,2013-01-30 18:25:00,
2013-01-30 13:35:00,55.3,51.5,29.26,SW,231,3.0,5.0,87,0.00,,,0.35,Wunderground v.1.15,2013-01-30 18:35:00,
2013-01-30 13:45:00,55.4,51.3,29.29,SW,214,5.0,5.0,86,0.00,,,0.35,Wunderground v.1.15,2013-01-30 18:45:00,
2013-01-30 13:55:00,55.4,51.3,29.27,SW,219,5.0,8.0,86,0.00,,,0.35,Wunderground v.1.15,2013-01-30 18:55:00,
2013-01-30 14:00:00,55.4,51.3,29.26,SSW,205,4.0,4.0,86,0.00,,,0.36,Wunderground v.1.15,2013-01-30 19:00:00,
2013-01-30 14:10:00,55.3,51.2,29.27,SW,227,4.0,5.0,86,0.00,,,0.36,Wunderground v.1.15,2013-01-30 19:10:00,
2013-01-30 14:20:00,55.3,50.9,29.25,SW,232,5.0,5.0,85,0.00,,,0.36,Wunderground v.1.15,2013-01-30 19:20:00,
2013-01-30 14:25:00,55.2,50.8,29.25,SW,219,5.0,5.0,85,0.00,,,0.36,Wunderground v.1.15,2013-01-30 19:25:00,
2013-01-30 14:35:00,55.2,50.8,29.26,WSW,239,5.0,7.0,85,0.00,,,0.36,Wunderground v.1.15,2013-01-30 19:35:00,
2013-01-30 14:40:00,55.2,50.8,29.26,SW,233,5.0,5.0,85,0.00,,,0.36,Wunderground v.1.15,2013-01-30 19:40:00,
2013-01-30 14:50:00,55.1,50.7,29.25,SSW,208,5.0,5.0,85,0.00,,,0.36,Wunderground v.1.15,2013-01-30 19:50:00,
2013-01-30 14:55:00,55.1,50.7,29.25,SW,214,4.0,5.0,85,0.00,,,0.36,Wunderground v.1.15,2013-01-30 19:55:00,
2013-01-30 15:00:00,55.1,50.7,29.25,SW,219,5.0,6.0,85,0.00,,,0.36,Wunderground v.1.15,2013-01-30 20:00:00,
2013-01-30 15:10:00,54.9,50.8,29.25,SSE,160,6.0,6.0,86,0.00,,,0.36,Wunderground v.1.15,2013-01-30 20:10:00,
2013-01-30 15:15:00,54.8,50.7,29.26,SW,228,6.0,9.0,86,0.00,,,0.36,Wunderground v.1.15,2013-01-30 20:15:00,
2013-01-30 15:25:00,54.0,50.8,29.23,SSW,207,7.0,7.0,89,0.00,,,0.36,Wunderground v.1.15,2013-01-30 20:25:00,
2013-01-30 15:30:00,53.5,50.6,29.23,SW,219,5.0,8.0,90,0.00,,,0.36,Wunderground v.1.15,2013-01-30 20:30:00,
2013-01-30 15:40:00,52.9,50.6,29.21,SW,230,5.0,6.0,92,0.00,,,0.36,Wunderground v.1.15,2013-01-30 20:40:00,
2013-01-30 15:45:00,52.8,50.5,29.21,SW,214,5.0,6.0,92,0.00,,,0.36,Wunderground v.1.15,2013-01-30 20:45:00,
2013-01-30 15:55:00,52.9,50.6,29.23,WSW,257,5.0,5.0,92,0.00,,,0.36,Wunderground v.1.15,2013-01-30 20:55:00,
2013-01-30 16:00:00,53.0,50.7,29.24,WSW,238,5.0,6.0,92,0.00,,,0.36,Wunderground v.1.15,2013-01-30 21:00:00,
2013-01-30 16:10:00,52.8,50.8,29.25,SSW,213,5.0,5.0,93,0.00,,,0.36,Wunderground v.1.15,2013-01-30 21:10:00,
2013-01-30 16:20:00,52.6,50.3,29.25,SW,217,6.0,9.0,92,0.00,,,0.36,Wunderground v.1.15,2013-01-30 21:20:00,
2013-01-30 16:25:00,52.8,50.2,29.25,SW,215,7.0,9.0,91,0.00,,,0.37,Wunderground v.1.15,2013-01-30 21:25:00,
2013-01-30 16:35:00,52.8,49.9,29.24,WSW,248,6.0,7.0,90,0.00,,,0.37,Wunderground v.1.15,2013-01-30 21:35:00,
2013-01-30 16:45:00,52.6,49.8,29.22,SSW,212,5.0,5.0,90,0.00,,,0.37,Wunderground v.1.15,2013-01-30 21:45:00,
2013-01-30 16:55:00,52.5,49.7,29.22,WSW,238,5.0,5.0,90,0.00,,,0.37,Wunderground v.1.15,2013-01-30 21:55:00,
2013-01-30 17:00:00,52.4,49.6,29.22,SSW,206,4.0,6.0,90,0.00,,,0.37,Wunderground v.1.15,2013-01-30 22:00:00,
2013-01-30 17:10:00,52.4,49.6,29.22,SW,228,5.0,6.0,90,0.00,,,0.37,Wunderground v.1.15,2013-01-30 22:10:00,
2013-01-30 17:20:00,52.4,49.3,29.21,SW,229,5.0,5.0,89,0.00,,,0.37,Wunderground v.1.15,2013-01-30 22:20:00,
2013-01-30 17:30:00,52.1,49.0,29.20,SSW,208,4.0,5.0,89,0.00,,,0.37,Wunderground v.1.15,2013-01-30 22:30:00,
2013-01-30 17:40:00,52.0,48.9,29.20,WSW,243,4.0,4.0,89,0.00,,,0.37,Wunderground v.1.15,2013-01-30 22:40:00,
2013-01-30 17:50:00,51.8,48.7,29.18,SW,226,4.0,4.0,89,0.00,,,0.37,Wunderground v.1.15,2013-01-30 22:50:00,
2013-01-30 18:00:00,51.6,48.8,29.19,SSW,211,4.0,4.0,90,0.00,,,0.37,Wunderground v.1.15,2013-01-30 23:00:00,
2013-01-30 18:10:00,51.8,49.3,29.18,SW,232,5.0,6.0,91,0.00,,,0.37,Wunderground v.1.15,2013-01-30 23:10:00,
2013-01-30 18:20:00,51.7,48.9,29.18,SW,221,5.0,5.0,90,0.00,,,0.37,Wunderground v.1.15,2013-01-30 23:20:00,
2013-01-30 18:30:00,51.7,48.9,29.17,East,97,5.0,5.0,90,0.00,,,0.37,Wunderground v.1.15,2013-01-30 23:30:00,
2013-01-30 18:40:00,51.8,48.7,29.17,SSW,204,5.0,5.0,89,0.00,,,0.37,Wunderground v.1.15,2013-01-30 23:40:00,
2013-01-30 18:50:00,52.0,48.6,29.17,SW,217,5.0,5.0,88,0.00,,,0.37,Wunderground v.1.15,2013-01-30 23:50:00,
2013-01-30 18:55:00,52.0,48.6,29.16,SSW,209,5.0,6.0,88,0.00,,,0.37,Wunderground v.1.15,2013-01-30 23:55:00,
2013-01-30 19:00:00,52.1,48.7,29.16,East,99,6.0,6.0,88,0.00,,,0.37,Wunderground v.1.15,2013-01-31 00:00:00,
2013-01-30 19:10:00,48.5,44.8,29.19,West,260,9.0,11.0,87,0.21,,,0.39,Wunderground v.1.15,2013-01-31 00:10:00,
2013-01-30 19:15:00,47.0,43.9,29.19,WSW,251,9.0,11.0,89,0.08,,,0.39,Wunderground v.1.15,2013-01-31 00:15:00,
2013-01-30 19:25:00,46.0,43.5,29.19,SW,233,7.0,8.0,91,0.00,,,0.39,Wunderground v.1.15,2013-01-31 00:25:00,
2013-01-30 19:30:00,45.8,43.3,29.19,WSW,253,7.0,7.0,91,0.00,,,0.39,Wunderground v.1.15,2013-01-31 00:30:00,
2013-01-30 19:40:00,45.5,43.3,29.19,West,259,5.0,6.0,92,0.00,,,0.39,Wunderground v.1.15,2013-01-31 00:40:00,
2013-01-30 19:50:00,45.3,42.5,29.21,WSW,238,6.0,7.0,90,0.00,,,0.39,Wunderground v.1.15,2013-01-31 00:50:00,
2013-01-30 20:00:00,44.6,41.6,29.21,SW,214,8.0,8.0,89,0.00,,,0.40,Wunderground v.1.15,2013-01-31 01:00:00,
2013-01-30 20:10:00,43.3,40.3,29.21,WSW,250,7.0,8.0,89,0.00,,,0.40,Wunderground v.1.15,2013-01-31 01:10:00,
2013-01-30 20:20:00,42.4,39.7,29.22,SW,221,6.0,9.0,90,0.00,,,0.40,Wunderground v.1.15,2013-01-31 01:20:00,
2013-01-30 20:30:00,41.0,37.7,29.22,SW,221,10.0,13.0,88,0.00,,,0.41,Wunderground v.1.15,2013-01-31 01:30:00,
2013-01-30 20:35:00,40.4,37.4,29.22,SW,228,11.0,13.0,89,0.00,,,0.41,Wunderground v.1.15,2013-01-31 01:35:00,
2013-01-30 20:45:00,39.7,36.1,29.22,SW,235,9.0,10.0,87,0.00,,,0.41,Wunderground v.1.15,2013-01-31 01:45:00,
2013-01-30 20:55:00,39.0,35.7,29.23,West,262,8.0,8.0,88,0.00,,,0.41,Wunderground v.1.15,2013-01-31 01:55:00,
2013-01-30 21:00:00,38.8,35.6,29.23,WSW,251,8.0,12.0,88,0.00,,,0.41,Wunderground v.1.15,2013-01-31 02:00:00,
2013-01-30 21:10:00,38.5,35.3,29.23,SW,224,8.0,8.0,88,0.00,,,0.41,Wunderground v.1.15,2013-01-31 02:10:00,
2013-01-30 21:15:00,38.4,35.4,29.22,West,259,8.0,8.0,89,0.00,,,0.41,Wunderground v.1.15,2013-01-31 02:15:00,
2013-01-30 21:25:00,38.3,35.3,29.22,West,260,8.0,9.0,89,0.00,,,0.41,Wunderground v.1.15,2013-01-31 02:25:00,
2013-01-30 21:30:00,38.2,35.2,29.22,WSW,243,7.0,7.0,89,0.00,,,0.41,Wunderground v.1.15,2013-01-31 02:30:00,
2013-01-30 21:40:00,38.1,35.1,29.22,SW,236,6.0,6.0,89,0.00,,,0.41,Wunderground v.1.15,2013-01-31 02:40:00,
2013-01-30 21:50:00,38.1,34.9,29.23,WSW,239,7.0,8.0,88,0.00,,,0.41,Wunderground v.1.15,2013-01-31 02:50:00,
2013-01-30 22:00:00,38.1,34.6,29.22,SW,219,7.0,7.0,87,0.00,,,0.41,Wunderground v.1.15,2013-01-31 03:00:00,
2013-01-30 22:10:00,38.0,34.2,29.21,WSW,249,6.0,6.0,86,0.00,,,0.41,Wunderground v.1.15,2013-01-31 03:10:00,
2013-01-30 22:15:00,37.9,33.8,29.21,SSW,210,7.0,7.0,85,0.00,,,0.41,Wunderground v.1.15,2013-01-31 03:15:00,
2013-01-30 22:25:00,37.9,33.5,29.21,SW,214,9.0,9.0,84,0.00,,,0.41,Wunderground v.1.15,2013-01-31 03:25:00,
2013-01-30 22:30:00,37.8,33.7,29.21,WSW,243,9.0,9.0,85,0.00,,,0.41,Wunderground v.1.15,2013-01-31 03:30:00,
2013-01-30 22:40:00,37.6,33.8,29.22,SW,220,9.0,9.0,86,0.00,,,0.41,Wunderground v.1.15,2013-01-31 03:40:00,
2013-01-30 22:50:00,37.4,33.9,29.22,West,271,8.0,8.0,87,0.00,,,0.41,Wunderground v.1.15,2013-01-31 03:50:00,
2013-01-30 23:00:00,37.3,33.5,29.23,WSW,237,9.0,16.0,86,0.00,,,0.41,Wunderground v.1.15,2013-01-31 04:00:00,
2013-01-30 23:10:00,36.4,29.9,29.25,SW,223,14.0,15.0,77,0.00,,,0.41,Wunderground v.1.15,2013-01-31 04:10:00,
2013-01-30 23:15:00,35.9,29.4,29.26,WSW,253,14.0,17.0,77,0.00,,,0.41,Wunderground v.1.15,2013-01-31 04:15:00,
2013-01-30 23:25:00,35.1,28.9,29.27,West,271,11.0,13.0,78,0.00,,,0.41,Wunderground v.1.15,2013-01-31 04:25:00,
2013-01-30 23:30:00,34.8,28.6,29.28,WSW,250,9.0,11.0,78,0.00,,,0.41,Wunderground v.1.15,2013-01-31 04:30:00,
2013-01-30 23:40:00,34.4,27.6,29.29,WSW,252,13.0,13.0,76,0.00,,,0.41,Wunderground v.1.15,2013-01-31 04:40:00,
2013-01-30 23:50:00,34.0,27.2,29.30,WNW,293,10.0,10.0,76,0.00,,,0.41,Wunderground v.1.15,2013-01-31 04:50:00,